Thornton, Colorado
Current Conditions -  °F | °C
As of 8:45 AM on Friday 19 Dec 2014 (Local Time) from KBJC Reporting Station
Clear Clear  
Wind Chill: 30°   Ceiling: Unl
Heat Index: 30°   Visibility: 50mi
Dew Point: 25°   Wind: 0mph
Humidity: 80%   Direction: NA
Pressure: 30.1"   Gusts: NA
Location:  39.87°N, 104.98°W
Report Text: KBJC 191545Z 00000KT 50SM SKC M01/M04 A3010
Loading
Personal Weather Stations






























Interactive Weather Map New forecast layout! Learn more

10-Day Weather Forecast

Advertisements
Track Severe Weather on mobile